sensor_id;sensor_type;location;lat;lon;timestamp;temperature;humidity
42031;DHT22;27709;52.036;5.906;2022-12-29T00:02:23;10.90;99.90
42031;DHT22;27709;52.036;5.906;2022-12-29T00:04:51;10.90;99.90
42031;DHT22;27709;52.036;5.906;2022-12-29T00:07:17;10.90;99.90
42031;DHT22;27709;52.036;5.906;2022-12-29T00:09:43;10.90;99.90
42031;DHT22;27709;52.036;5.906;2022-12-29T00:12:08;10.90;99.90
42031;DHT22;27709;52.036;5.906;2022-12-29T00:14:37;10.90;99.90
42031;DHT22;27709;52.036;5.906;2022-12-29T00:17:22;10.90;99.90
42031;DHT22;27709;52.036;5.906;2022-12-29T00:19:47;10.90;99.90
42031;DHT22;27709;52.036;5.906;2022-12-29T00:22:32;10.90;99.90
42031;DHT22;27709;52.036;5.906;2022-12-29T00:25:16;10.90;99.90
42031;DHT22;27709;52.036;5.906;2022-12-29T00:28:00;10.90;99.90
42031;DHT22;27709;52.036;5.906;2022-12-29T00:30:44;10.90;99.90
42031;DHT22;27709;52.036;5.906;2022-12-29T00:33:30;10.90;99.90
42031;DHT22;27709;52.036;5.906;2022-12-29T00:38:58;10.90;99.90
42031;DHT22;27709;52.036;5.906;2022-12-29T00:41:43;10.90;99.90
42031;DHT22;27709;52.036;5.906;2022-12-29T00:44:32;10.90;99.90
42031;DHT22;27709;52.036;5.906;2022-12-29T00:46:58;11.00;99.90
42031;DHT22;27709;52.036;5.906;2022-12-29T00:49:27;11.00;99.90
42031;DHT22;27709;52.036;5.906;2022-12-29T00:51:59;11.00;99.90
42031;DHT22;27709;52.036;5.906;2022-12-29T00:54:27;11.00;99.90
42031;DHT22;27709;52.036;5.906;2022-12-29T00:56:53;11.00;99.90
42031;DHT22;27709;52.036;5.906;2022-12-29T00:59:20;11.00;99.90
42031;DHT22;27709;52.036;5.906;2022-12-29T01:01:46;11.00;99.90
42031;DHT22;27709;52.036;5.906;2022-12-29T01:04:15;11.00;99.90
42031;DHT22;27709;52.036;5.906;2022-12-29T01:06:41;11.00;99.90
42031;DHT22;27709;52.036;5.906;2022-12-29T01:09:07;11.00;99.90
42031;DHT22;27709;52.036;5.906;2022-12-29T01:11:52;11.00;99.90
42031;DHT22;27709;52.036;5.906;2022-12-29T01:14:18;11.00;99.90
42031;DHT22;27709;52.036;5.906;2022-12-29T01:16:44;11.00;99.90
42031;DHT22;27709;52.036;5.906;2022-12-29T01:19:11;11.00;99.90
42031;DHT22;27709;52.036;5.906;2022-12-29T01:21:36;11.00;99.90
42031;DHT22;27709;52.036;5.906;2022-12-29T01:24:02;11.00;99.90
42031;DHT22;27709;52.036;5.906;2022-12-29T01:26:29;11.00;99.90
42031;DHT22;27709;52.036;5.906;2022-12-29T01:28:54;11.00;99.90
42031;DHT22;27709;52.036;5.906;2022-12-29T01:31:20;11.00;99.90
42031;DHT22;27709;52.036;5.906;2022-12-29T01:33:46;11.00;99.90
42031;DHT22;27709;52.036;5.906;2022-12-29T01:36:15;11.00;99.90
42031;DHT22;27709;52.036;5.906;2022-12-29T01:38:41;11.00;99.90
42031;DHT22;27709;52.036;5.906;2022-12-29T01:41:09;11.00;99.90
42031;DHT22;27709;52.036;5.906;2022-12-29T01:48:52;11.00;99.90
42031;DHT22;27709;52.036;5.906;2022-12-29T01:51:21;11.00;99.90
42031;DHT22;27709;52.036;5.906;2022-12-29T01:53:47;11.00;99.90
42031;DHT22;27709;52.036;5.906;2022-12-29T01:56:15;11.00;99.90
42031;DHT22;27709;52.036;5.906;2022-12-29T01:58:45;11.00;99.90
42031;DHT22;27709;52.036;5.906;2022-12-29T02:01:13;11.00;99.90
42031;DHT22;27709;52.036;5.906;2022-12-29T02:03:39;11.00;99.90
42031;DHT22;27709;52.036;5.906;2022-12-29T02:06:19;11.00;99.90
42031;DHT22;27709;52.036;5.906;2022-12-29T02:08:47;11.00;99.90
42031;DHT22;27709;52.036;5.906;2022-12-29T02:11:13;10.90;99.90
42031;DHT22;27709;52.036;5.906;2022-12-29T02:13:39;11.00;99.90
42031;DHT22;27709;52.036;5.906;2022-12-29T02:21:56;10.90;99.90
42031;DHT22;27709;52.036;5.906;2022-12-29T02:27:45;10.90;99.90
42031;DHT22;27709;52.036;5.906;2022-12-29T02:33:21;10.90;99.90
42031;DHT22;27709;52.036;5.906;2022-12-29T02:44:19;10.80;99.90
42031;DHT22;27709;52.036;5.906;2022-12-29T02:47:00;10.80;99.90
42031;DHT22;27709;52.036;5.906;2022-12-29T02:49:42;10.70;99.90
42031;DHT22;27709;52.036;5.906;2022-12-29T02:52:25;10.70;99.90
42031;DHT22;27709;52.036;5.906;2022-12-29T02:54:54;10.70;99.90
42031;DHT22;27709;52.036;5.906;2022-12-29T03:02:46;10.70;99.90
42031;DHT22;27709;52.036;5.906;2022-12-29T03:05:35;10.70;99.90
42031;DHT22;27709;52.036;5.906;2022-12-29T03:08:18;10.70;99.90
42031;DHT22;27709;52.036;5.906;2022-12-29T03:11:13;10.80;99.90
42031;DHT22;27709;52.036;5.906;2022-12-29T03:14:16;10.80;99.90
42031;DHT22;27709;52.036;5.906;2022-12-29T03:17:10;10.70;99.90
42031;DHT22;27709;52.036;5.906;2022-12-29T03:19:47;10.70;99.90
42031;DHT22;27709;52.036;5.906;2022-12-29T03:22:24;10.70;99.90
42031;DHT22;27709;52.036;5.906;2022-12-29T03:27:43;10.80;99.90
42031;DHT22;27709;52.036;5.906;2022-12-29T03:30:16;10.80;99.90
42031;DHT22;27709;52.036;5.906;2022-12-29T03:32:51;10.90;99.90
42031;DHT22;27709;52.036;5.906;2022-12-29T03:35:21;10.90;99.90
42031;DHT22;27709;52.036;5.906;2022-12-29T03:38:09;10.80;99.90
42031;DHT22;27709;52.036;5.906;2022-12-29T03:40:38;10.80;99.90
42031;DHT22;27709;52.036;5.906;2022-12-29T03:43:09;10.80;99.90
42031;DHT22;27709;52.036;5.906;2022-12-29T03:45:46;10.80;99.90
42031;DHT22;27709;52.036;5.906;2022-12-29T03:48:11;10.80;99.90
42031;DHT22;27709;52.036;5.906;2022-12-29T03:50:45;10.80;99.90
42031;DHT22;27709;52.036;5.906;2022-12-29T03:53:11;10.80;99.90
42031;DHT22;27709;52.036;5.906;2022-12-29T03:55:46;10.80;99.90
42031;DHT22;27709;52.036;5.906;2022-12-29T03:58:11;10.80;99.90
42031;DHT22;27709;52.036;5.906;2022-12-29T04:00:40;10.80;99.90
42031;DHT22;27709;52.036;5.906;2022-12-29T04:03:05;10.80;99.90
42031;DHT22;27709;52.036;5.906;2022-12-29T04:10:55;10.70;99.90
42031;DHT22;27709;52.036;5.906;2022-12-29T04:13:26;10.70;99.90
42031;DHT22;27709;52.036;5.906;2022-12-29T04:15:52;10.70;99.90
42031;DHT22;27709;52.036;5.906;2022-12-29T04:18:18;10.70;99.90
42031;DHT22;27709;52.036;5.906;2022-12-29T04:20:47;10.70;99.90
42031;DHT22;27709;52.036;5.906;2022-12-29T04:24:00;10.80;99.90
42031;DHT22;27709;52.036;5.906;2022-12-29T04:29:07;10.80;99.90
42031;DHT22;27709;52.036;5.906;2022-12-29T04:31:38;10.90;99.90
42031;DHT22;27709;52.036;5.906;2022-12-29T04:34:03;10.90;99.90
42031;DHT22;27709;52.036;5.906;2022-12-29T04:36:32;10.80;99.90
42031;DHT22;27709;52.036;5.906;2022-12-29T04:39:13;10.80;99.90
42031;DHT22;27709;52.036;5.906;2022-12-29T04:41:38;10.80;99.90
42031;DHT22;27709;52.036;5.906;2022-12-29T04:44:12;10.80;99.90
42031;DHT22;27709;52.036;5.906;2022-12-29T04:46:44;10.90;99.90
42031;DHT22;27709;52.036;5.906;2022-12-29T04:49:16;10.90;99.90
42031;DHT22;27709;52.036;5.906;2022-12-29T04:51:41;10.90;99.90
42031;DHT22;27709;52.036;5.906;2022-12-29T04:54:07;10.90;99.90
42031;DHT22;27709;52.036;5.906;2022-12-29T04:56:46;10.90;99.90
42031;DHT22;27709;52.036;5.906;2022-12-29T04:59:14;11.00;99.90
42031;DHT22;27709;52.036;5.906;2022-12-29T05:01:41;10.90;99.90
42031;DHT22;27709;52.036;5.906;2022-12-29T05:04:08;10.90;99.90
42031;DHT22;27709;52.036;5.906;2022-12-29T05:06:43;10.90;99.90
42031;DHT22;27709;52.036;5.906;2022-12-29T05:09:30;10.90;99.90
42031;DHT22;27709;52.036;5.906;2022-12-29T05:12:01;11.00;99.90
42031;DHT22;27709;52.036;5.906;2022-12-29T05:14:27;10.90;99.90
42031;DHT22;27709;52.036;5.906;2022-12-29T05:16:52;10.90;99.90
42031;DHT22;27709;52.036;5.906;2022-12-29T05:19:18;10.90;99.90
42031;DHT22;27709;52.036;5.906;2022-12-29T05:21:43;10.90;99.90
42031;DHT22;27709;52.036;5.906;2022-12-29T05:24:13;10.90;99.90
42031;DHT22;27709;52.036;5.906;2022-12-29T05:26:39;10.80;99.90
42031;DHT22;27709;52.036;5.906;2022-12-29T05:29:04;10.80;99.90
42031;DHT22;27709;52.036;5.906;2022-12-29T05:31:30;10.80;99.90
42031;DHT22;27709;52.036;5.906;2022-12-29T05:34:03;10.80;99.90
42031;DHT22;27709;52.036;5.906;2022-12-29T05:36:36;10.80;99.90
42031;DHT22;27709;52.036;5.906;2022-12-29T05:39:09;10.70;99.90
42031;DHT22;27709;52.036;5.906;2022-12-29T05:41:40;10.70;99.90
42031;DHT22;27709;52.036;5.906;2022-12-29T05:44:09;10.70;99.90
42031;DHT22;27709;52.036;5.906;2022-12-29T05:46:43;10.60;99.90
42031;DHT22;27709;52.036;5.906;2022-12-29T05:49:10;10.50;99.90
42031;DHT22;27709;52.036;5.906;2022-12-29T05:51:36;10.40;99.90
42031;DHT22;27709;52.036;5.906;2022-12-29T05:54:10;10.40;99.90
42031;DHT22;27709;52.036;5.906;2022-12-29T05:56:36;10.40;99.90
42031;DHT22;27709;52.036;5.906;2022-12-29T05:59:01;10.40;99.90
42031;DHT22;27709;52.036;5.906;2022-12-29T06:01:27;10.40;99.90
42031;DHT22;27709;52.036;5.906;2022-12-29T06:03:53;10.30;99.90
42031;DHT22;27709;52.036;5.906;2022-12-29T06:06:23;10.40;99.90
42031;DHT22;27709;52.036;5.906;2022-12-29T06:09:00;10.40;99.90
42031;DHT22;27709;52.036;5.906;2022-12-29T06:11:26;10.30;99.90
42031;DHT22;27709;52.036;5.906;2022-12-29T06:13:51;10.30;99.90
42031;DHT22;27709;52.036;5.906;2022-12-29T06:16:20;10.30;99.90
42031;DHT22;27709;52.036;5.906;2022-12-29T06:19:07;10.30;99.90
42031;DHT22;27709;52.036;5.906;2022-12-29T06:21:33;10.30;99.90
42031;DHT22;27709;52.036;5.906;2022-12-29T06:24:06;10.20;99.90
42031;DHT22;27709;52.036;5.906;2022-12-29T06:26:31;10.30;99.90
42031;DHT22;27709;52.036;5.906;2022-12-29T06:29:07;10.20;99.90
42031;DHT22;27709;52.036;5.906;2022-12-29T06:31:36;10.20;99.90
42031;DHT22;27709;52.036;5.906;2022-12-29T06:34:02;10.20;99.90
42031;DHT22;27709;52.036;5.906;2022-12-29T06:36:31;10.20;99.90
42031;DHT22;27709;52.036;5.906;2022-12-29T06:38:56;10.20;99.90
42031;DHT22;27709;52.036;5.906;2022-12-29T06:41:32;10.20;99.90
42031;DHT22;27709;52.036;5.906;2022-12-29T06:44:01;10.20;99.90
42031;DHT22;27709;52.036;5.906;2022-12-29T06:46:26;10.20;99.90
42031;DHT22;27709;52.036;5.906;2022-12-29T06:48:54;10.30;99.90
42031;DHT22;27709;52.036;5.906;2022-12-29T06:51:23;10.20;99.90
42031;DHT22;27709;52.036;5.906;2022-12-29T06:53:52;10.20;99.90
42031;DHT22;27709;52.036;5.906;2022-12-29T06:56:21;10.20;99.90
42031;DHT22;27709;52.036;5.906;2022-12-29T06:58:46;10.30;99.90
42031;DHT22;27709;52.036;5.906;2022-12-29T07:01:13;10.30;99.90
42031;DHT22;27709;52.036;5.906;2022-12-29T07:03:45;10.30;99.90
42031;DHT22;27709;52.036;5.906;2022-12-29T07:06:12;10.30;99.90
42031;DHT22;27709;52.036;5.906;2022-12-29T07:08:56;10.30;99.90
42031;DHT22;27709;52.036;5.906;2022-12-29T07:11:23;10.40;99.90
42031;DHT22;27709;52.036;5.906;2022-12-29T07:13:51;10.40;99.90
42031;DHT22;27709;52.036;5.906;2022-12-29T07:16:18;10.40;99.90
42031;DHT22;27709;52.036;5.906;2022-12-29T07:18:48;10.50;99.90
42031;DHT22;27709;52.036;5.906;2022-12-29T07:21:14;10.50;99.90
42031;DHT22;27709;52.036;5.906;2022-12-29T07:23:42;10.50;99.90
42031;DHT22;27709;52.036;5.906;2022-12-29T07:26:10;10.40;99.90
42031;DHT22;27709;52.036;5.906;2022-12-29T07:28:36;10.40;99.90
42031;DHT22;27709;52.036;5.906;2022-12-29T07:31:03;10.30;99.90
42031;DHT22;27709;52.036;5.906;2022-12-29T07:33:29;10.30;99.90
42031;DHT22;27709;52.036;5.906;2022-12-29T07:35:54;10.20;99.90
42031;DHT22;27709;52.036;5.906;2022-12-29T07:38:20;10.20;99.90
42031;DHT22;27709;52.036;5.906;2022-12-29T07:40:45;10.20;99.90
42031;DHT22;27709;52.036;5.906;2022-12-29T07:43:11;10.20;99.90
42031;DHT22;27709;52.036;5.906;2022-12-29T07:45:39;10.20;99.90
42031;DHT22;27709;52.036;5.906;2022-12-29T07:48:06;10.20;99.90
42031;DHT22;27709;52.036;5.906;2022-12-29T07:50:35;10.20;99.90
42031;DHT22;27709;52.036;5.906;2022-12-29T07:53:01;10.20;99.90
42031;DHT22;27709;52.036;5.906;2022-12-29T07:55:28;10.20;99.90
42031;DHT22;27709;52.036;5.906;2022-12-29T07:57:55;10.20;99.90
42031;DHT22;27709;52.036;5.906;2022-12-29T08:00:21;10.20;99.90
42031;DHT22;27709;52.036;5.906;2022-12-29T08:02:50;10.20;99.90
42031;DHT22;27709;52.036;5.906;2022-12-29T08:05:26;10.20;99.90
42031;DHT22;27709;52.036;5.906;2022-12-29T08:07:51;10.20;99.90
42031;DHT22;27709;52.036;5.906;2022-12-29T08:10:24;10.20;99.90
42031;DHT22;27709;52.036;5.906;2022-12-29T08:12:51;10.20;99.90
42031;DHT22;27709;52.036;5.906;2022-12-29T08:15:17;10.30;99.90
42031;DHT22;27709;52.036;5.906;2022-12-29T08:17:42;10.30;99.90
42031;DHT22;27709;52.036;5.906;2022-12-29T08:20:11;10.30;99.90
42031;DHT22;27709;52.036;5.906;2022-12-29T08:22:37;10.30;99.90
42031;DHT22;27709;52.036;5.906;2022-12-29T08:25:03;10.30;99.90
42031;DHT22;27709;52.036;5.906;2022-12-29T08:27:28;10.30;99.90
42031;DHT22;27709;52.036;5.906;2022-12-29T08:29:54;10.30;99.90
42031;DHT22;27709;52.036;5.906;2022-12-29T08:32:19;10.40;99.90
42031;DHT22;27709;52.036;5.906;2022-12-29T08:34:50;10.50;99.90
42031;DHT22;27709;52.036;5.906;2022-12-29T08:37:17;10.50;99.90
42031;DHT22;27709;52.036;5.906;2022-12-29T08:39:42;10.50;99.90
42031;DHT22;27709;52.036;5.906;2022-12-29T08:42:08;10.50;99.90
42031;DHT22;27709;52.036;5.906;2022-12-29T08:44:36;10.60;99.90
42031;DHT22;27709;52.036;5.906;2022-12-29T08:47:02;10.60;99.90
42031;DHT22;27709;52.036;5.906;2022-12-29T08:49:30;10.60;99.90
42031;DHT22;27709;52.036;5.906;2022-12-29T08:51:56;10.60;99.90
42031;DHT22;27709;52.036;5.906;2022-12-29T08:54:21;10.60;99.90
42031;DHT22;27709;52.036;5.906;2022-12-29T08:56:48;10.60;99.90
42031;DHT22;27709;52.036;5.906;2022-12-29T08:59:16;10.60;99.90
42031;DHT22;27709;52.036;5.906;2022-12-29T09:01:45;10.60;99.90
42031;DHT22;27709;52.036;5.906;2022-12-29T09:04:10;10.60;99.90
42031;DHT22;27709;52.036;5.906;2022-12-29T09:06:36;10.60;99.90
42031;DHT22;27709;52.036;5.906;2022-12-29T09:09:04;10.60;99.90
42031;DHT22;27709;52.036;5.906;2022-12-29T09:11:30;10.60;99.90
42031;DHT22;27709;52.036;5.906;2022-12-29T09:13:55;10.60;99.90
42031;DHT22;27709;52.036;5.906;2022-12-29T09:16:24;10.70;99.90
42031;DHT22;27709;52.036;5.906;2022-12-29T09:18:53;10.70;99.90
42031;DHT22;27709;52.036;5.906;2022-12-29T09:21:18;10.70;99.90
42031;DHT22;27709;52.036;5.906;2022-12-29T09:23:44;10.70;99.90
42031;DHT22;27709;52.036;5.906;2022-12-29T09:26:11;10.60;99.90
42031;DHT22;27709;52.036;5.906;2022-12-29T09:28:36;10.50;99.90
42031;DHT22;27709;52.036;5.906;2022-12-29T09:31:05;10.50;99.90
42031;DHT22;27709;52.036;5.906;2022-12-29T09:33:32;10.50;99.90
42031;DHT22;27709;52.036;5.906;2022-12-29T09:36:00;10.50;99.90
42031;DHT22;27709;52.036;5.906;2022-12-29T09:38:27;10.50;99.90
42031;DHT22;27709;52.036;5.906;2022-12-29T09:41:05;10.40;99.90
42031;DHT22;27709;52.036;5.906;2022-12-29T09:43:53;10.50;99.90
42031;DHT22;27709;52.036;5.906;2022-12-29T09:46:27;10.50;99.90
42031;DHT22;27709;52.036;5.906;2022-12-29T09:49:07;10.50;99.90
42031;DHT22;27709;52.036;5.906;2022-12-29T09:51:36;10.50;99.90
42031;DHT22;27709;52.036;5.906;2022-12-29T09:56:49;10.40;99.90
42031;DHT22;27709;52.036;5.906;2022-12-29T09:59:24;10.30;99.90
42031;DHT22;27709;52.036;5.906;2022-12-29T10:01:59;10.30;99.90
42031;DHT22;27709;52.036;5.906;2022-12-29T10:04:30;10.20;99.90
42031;DHT22;27709;52.036;5.906;2022-12-29T10:07:14;10.20;99.90
42031;DHT22;27709;52.036;5.906;2022-12-29T10:10:13;10.10;99.90
42031;DHT22;27709;52.036;5.906;2022-12-29T10:15:31;10.00;99.90
42031;DHT22;27709;52.036;5.906;2022-12-29T10:21:06;9.90;99.90
42031;DHT22;27709;52.036;5.906;2022-12-29T10:23:45;9.90;99.90
42031;DHT22;27709;52.036;5.906;2022-12-29T10:26:16;9.90;99.90
42031;DHT22;27709;52.036;5.906;2022-12-29T10:28:47;9.90;99.90
42031;DHT22;27709;52.036;5.906;2022-12-29T10:31:28;9.90;99.90
42031;DHT22;27709;52.036;5.906;2022-12-29T10:33:58;9.80;99.90
42031;DHT22;27709;52.036;5.906;2022-12-29T10:36:37;9.80;99.90
42031;DHT22;27709;52.036;5.906;2022-12-29T10:41:44;9.80;99.90
42031;DHT22;27709;52.036;5.906;2022-12-29T10:44:16;9.70;99.90
42031;DHT22;27709;52.036;5.906;2022-12-29T10:46:43;9.70;99.90
42031;DHT22;27709;52.036;5.906;2022-12-29T10:49:17;9.70;99.90
42031;DHT22;27709;52.036;5.906;2022-12-29T10:51:46;9.70;99.90
42031;DHT22;27709;52.036;5.906;2022-12-29T10:54:23;9.70;99.90
42031;DHT22;27709;52.036;5.906;2022-12-29T10:57:01;9.70;99.90
42031;DHT22;27709;52.036;5.906;2022-12-29T10:59:34;9.80;99.90
42031;DHT22;27709;52.036;5.906;2022-12-29T11:05:01;9.80;99.90
42031;DHT22;27709;52.036;5.906;2022-12-29T11:07:30;9.90;99.90
42031;DHT22;27709;52.036;5.906;2022-12-29T11:10:19;9.90;99.90
42031;DHT22;27709;52.036;5.906;2022-12-29T11:13:04;9.80;99.90
42031;DHT22;27709;52.036;5.906;2022-12-29T11:15:45;9.80;99.90
42031;DHT22;27709;52.036;5.906;2022-12-29T11:18:25;9.80;99.90
42031;DHT22;27709;52.036;5.906;2022-12-29T11:21:00;9.80;99.90
42031;DHT22;27709;52.036;5.906;2022-12-29T11:23:38;9.80;99.90
42031;DHT22;27709;52.036;5.906;2022-12-29T11:26:11;9.80;99.90
42031;DHT22;27709;52.036;5.906;2022-12-29T11:28:39;9.90;99.90
42031;DHT22;27709;52.036;5.906;2022-12-29T11:31:06;9.90;99.90
42031;DHT22;27709;52.036;5.906;2022-12-29T11:33:33;10.00;99.90
42031;DHT22;27709;52.036;5.906;2022-12-29T11:36:20;10.10;99.90
42031;DHT22;27709;52.036;5.906;2022-12-29T11:38:49;10.10;99.90
42031;DHT22;27709;52.036;5.906;2022-12-29T11:41:24;10.10;99.90
42031;DHT22;27709;52.036;5.906;2022-12-29T11:43:52;10.00;99.90
42031;DHT22;27709;52.036;5.906;2022-12-29T11:46:22;10.00;99.90
42031;DHT22;27709;52.036;5.906;2022-12-29T11:48:49;10.00;99.90
42031;DHT22;27709;52.036;5.906;2022-12-29T11:51:23;10.00;99.90
42031;DHT22;27709;52.036;5.906;2022-12-29T11:54:02;9.90;99.90
42031;DHT22;27709;52.036;5.906;2022-12-29T11:56:37;9.90;99.90
42031;DHT22;27709;52.036;5.906;2022-12-29T11:59:34;9.90;99.90
42031;DHT22;27709;52.036;5.906;2022-12-29T12:02:28;9.90;99.90
42031;DHT22;27709;52.036;5.906;2022-12-29T12:07:56;10.00;99.90
42031;DHT22;27709;52.036;5.906;2022-12-29T12:10:29;10.00;99.90
42031;DHT22;27709;52.036;5.906;2022-12-29T12:13:08;10.00;99.90
42031;DHT22;27709;52.036;5.906;2022-12-29T12:15:40;10.10;99.90
42031;DHT22;27709;52.036;5.906;2022-12-29T12:18:32;10.10;99.90
42031;DHT22;27709;52.036;5.906;2022-12-29T12:21:20;10.10;99.90
42031;DHT22;27709;52.036;5.906;2022-12-29T12:26:21;10.20;99.90
42031;DHT22;27709;52.036;5.906;2022-12-29T12:28:57;10.30;99.90
42031;DHT22;27709;52.036;5.906;2022-12-29T12:31:34;10.50;99.90
42031;DHT22;27709;52.036;5.906;2022-12-29T12:34:06;10.50;99.90
42031;DHT22;27709;52.036;5.906;2022-12-29T12:39:26;10.40;99.90
42031;DHT22;27709;52.036;5.906;2022-12-29T12:44:52;10.40;99.90
42031;DHT22;27709;52.036;5.906;2022-12-29T12:50:24;10.40;99.90
42031;DHT22;27709;52.036;5.906;2022-12-29T12:53:23;10.40;99.90
42031;DHT22;27709;52.036;5.906;2022-12-29T13:04:27;10.40;99.90
42031;DHT22;27709;52.036;5.906;2022-12-29T13:18:41;10.40;99.90
42031;DHT22;27709;52.036;5.906;2022-12-29T13:26:54;10.40;99.90
42031;DHT22;27709;52.036;5.906;2022-12-29T13:29:39;10.40;99.90
42031;DHT22;27709;52.036;5.906;2022-12-29T13:35:05;10.50;99.90
42031;DHT22;27709;52.036;5.906;2022-12-29T13:37:51;10.40;99.90
42031;DHT22;27709;52.036;5.906;2022-12-29T13:40:21;10.50;99.90
42031;DHT22;27709;52.036;5.906;2022-12-29T13:42:48;10.40;99.90
42031;DHT22;27709;52.036;5.906;2022-12-29T13:45:17;10.40;99.90
42031;DHT22;27709;52.036;5.906;2022-12-29T13:48:06;10.40;99.90
42031;DHT22;27709;52.036;5.906;2022-12-29T13:50:36;10.40;99.90
42031;DHT22;27709;52.036;5.906;2022-12-29T13:55:53;10.50;99.90
42031;DHT22;27709;52.036;5.906;2022-12-29T13:58:31;10.40;99.90
42031;DHT22;27709;52.036;5.906;2022-12-29T14:01:20;10.40;99.90
42031;DHT22;27709;52.036;5.906;2022-12-29T14:03:52;10.40;99.90
42031;DHT22;27709;52.036;5.906;2022-12-29T14:06:32;10.30;99.90
42031;DHT22;27709;52.036;5.906;2022-12-29T14:09:05;10.30;99.90
42031;DHT22;27709;52.036;5.906;2022-12-29T14:11:36;10.30;99.90
42031;DHT22;27709;52.036;5.906;2022-12-29T14:16:37;10.30;99.90
42031;DHT22;27709;52.036;5.906;2022-12-29T14:19:13;10.30;99.90
42031;DHT22;27709;52.036;5.906;2022-12-29T14:21:41;10.30;99.90
42031;DHT22;27709;52.036;5.906;2022-12-29T14:24:27;10.30;99.90
42031;DHT22;27709;52.036;5.906;2022-12-29T14:26:53;10.30;99.90
42031;DHT22;27709;52.036;5.906;2022-12-29T14:31:56;10.20;99.90
42031;DHT22;27709;52.036;5.906;2022-12-29T14:37:02;10.10;99.90
42031;DHT22;27709;52.036;5.906;2022-12-29T14:39:44;10.10;99.90
42031;DHT22;27709;52.036;5.906;2022-12-29T14:42:12;10.10;99.90
42031;DHT22;27709;52.036;5.906;2022-12-29T14:47:35;10.00;99.90
42031;DHT22;27709;52.036;5.906;2022-12-29T14:57:48;9.70;99.90
42031;DHT22;27709;52.036;5.906;2022-12-29T15:00:18;9.60;99.90
42031;DHT22;27709;52.036;5.906;2022-12-29T15:02:47;9.60;99.90
42031;DHT22;27709;52.036;5.906;2022-12-29T15:07:58;9.50;99.90
42031;DHT22;27709;52.036;5.906;2022-12-29T15:10:25;9.50;99.90
42031;DHT22;27709;52.036;5.906;2022-12-29T15:12:53;9.50;99.90
42031;DHT22;27709;52.036;5.906;2022-12-29T15:15:27;9.50;99.90
42031;DHT22;27709;52.036;5.906;2022-12-29T15:17:55;9.50;99.90
42031;DHT22;27709;52.036;5.906;2022-12-29T15:20:26;9.50;99.90
42031;DHT22;27709;52.036;5.906;2022-12-29T15:23:22;9.50;99.90
42031;DHT22;27709;52.036;5.906;2022-12-29T15:28:20;9.40;99.90
42031;DHT22;27709;52.036;5.906;2022-12-29T15:30:54;9.40;99.90
42031;DHT22;27709;52.036;5.906;2022-12-29T15:33:26;9.40;99.90
42031;DHT22;27709;52.036;5.906;2022-12-29T15:35:54;9.40;99.90
42031;DHT22;27709;52.036;5.906;2022-12-29T15:38:26;9.40;99.90
42031;DHT22;27709;52.036;5.906;2022-12-29T15:40:54;9.40;99.90
42031;DHT22;27709;52.036;5.906;2022-12-29T15:43:50;9.40;99.90
42031;DHT22;27709;52.036;5.906;2022-12-29T15:46:18;9.40;99.90
42031;DHT22;27709;52.036;5.906;2022-12-29T15:48:43;9.40;99.90
42031;DHT22;27709;52.036;5.906;2022-12-29T15:51:30;9.40;99.90
42031;DHT22;27709;52.036;5.906;2022-12-29T15:53:58;9.40;99.90
42031;DHT22;27709;52.036;5.906;2022-12-29T15:56:27;9.40;99.90
42031;DHT22;27709;52.036;5.906;2022-12-29T15:58:53;9.40;99.90
42031;DHT22;27709;52.036;5.906;2022-12-29T16:01:31;9.30;99.90
42031;DHT22;27709;52.036;5.906;2022-12-29T16:04:04;9.40;99.90
42031;DHT22;27709;52.036;5.906;2022-12-29T16:06:31;9.40;99.90
42031;DHT22;27709;52.036;5.906;2022-12-29T16:09:33;9.40;99.90
42031;DHT22;27709;52.036;5.906;2022-12-29T16:12:06;9.40;99.90
42031;DHT22;27709;52.036;5.906;2022-12-29T16:17:50;9.40;99.90
42031;DHT22;27709;52.036;5.906;2022-12-29T16:20:43;9.40;99.90
42031;DHT22;27709;52.036;5.906;2022-12-29T16:23:19;9.40;99.90
42031;DHT22;27709;52.036;5.906;2022-12-29T16:25:46;9.40;99.90
42031;DHT22;27709;52.036;5.906;2022-12-29T16:28:42;9.40;99.90
42031;DHT22;27709;52.036;5.906;2022-12-29T16:31:26;9.40;99.90
42031;DHT22;27709;52.036;5.906;2022-12-29T16:33:57;9.40;99.90
42031;DHT22;27709;52.036;5.906;2022-12-29T16:36:30;9.40;99.90
42031;DHT22;27709;52.036;5.906;2022-12-29T16:39:19;9.40;99.90
42031;DHT22;27709;52.036;5.906;2022-12-29T16:41:49;9.30;99.90
42031;DHT22;27709;52.036;5.906;2022-12-29T16:49:35;9.20;99.90
42031;DHT22;27709;52.036;5.906;2022-12-29T16:52:12;9.10;99.90
42031;DHT22;27709;52.036;5.906;2022-12-29T16:54:39;9.10;99.90
42031;DHT22;27709;52.036;5.906;2022-12-29T16:57:08;9.10;99.90
42031;DHT22;27709;52.036;5.906;2022-12-29T16:59:38;9.00;99.90
42031;DHT22;27709;52.036;5.906;2022-12-29T17:02:14;9.00;99.90
42031;DHT22;27709;52.036;5.906;2022-12-29T17:04:40;9.00;99.90
42031;DHT22;27709;52.036;5.906;2022-12-29T17:07:17;9.00;99.90
42031;DHT22;27709;52.036;5.906;2022-12-29T17:09:43;9.00;99.90
42031;DHT22;27709;52.036;5.906;2022-12-29T17:12:13;8.90;99.90
42031;DHT22;27709;52.036;5.906;2022-12-29T17:14:53;8.90;99.90
42031;DHT22;27709;52.036;5.906;2022-12-29T17:17:49;8.90;99.90
42031;DHT22;27709;52.036;5.906;2022-12-29T17:20:27;8.90;99.90
42031;DHT22;27709;52.036;5.906;2022-12-29T17:22:54;8.90;99.90
42031;DHT22;27709;52.036;5.906;2022-12-29T17:25:36;8.90;99.90
42031;DHT22;27709;52.036;5.906;2022-12-29T17:28:15;8.90;99.90
42031;DHT22;27709;52.036;5.906;2022-12-29T17:30:43;8.90;99.90
42031;DHT22;27709;52.036;5.906;2022-12-29T17:33:17;8.80;99.90
42031;DHT22;27709;52.036;5.906;2022-12-29T17:35:43;8.80;99.90
42031;DHT22;27709;52.036;5.906;2022-12-29T17:38:22;8.70;99.90
42031;DHT22;27709;52.036;5.906;2022-12-29T17:40:51;8.70;99.90
42031;DHT22;27709;52.036;5.906;2022-12-29T17:43:16;8.60;99.90
42031;DHT22;27709;52.036;5.906;2022-12-29T17:45:46;8.60;99.90
42031;DHT22;27709;52.036;5.906;2022-12-29T17:48:14;8.60;99.90
42031;DHT22;27709;52.036;5.906;2022-12-29T17:50:40;8.60;99.90
42031;DHT22;27709;52.036;5.906;2022-12-29T17:53:11;8.60;99.90
42031;DHT22;27709;52.036;5.906;2022-12-29T17:55:37;8.60;99.90
42031;DHT22;27709;52.036;5.906;2022-12-29T18:00:47;8.60;99.90
42031;DHT22;27709;52.036;5.906;2022-12-29T18:03:17;8.60;99.90
42031;DHT22;27709;52.036;5.906;2022-12-29T18:05:44;8.60;99.90
42031;DHT22;27709;52.036;5.906;2022-12-29T18:08:10;8.60;99.90
42031;DHT22;27709;52.036;5.906;2022-12-29T18:10:37;8.60;99.90
42031;DHT22;27709;52.036;5.906;2022-12-29T18:13:02;8.50;99.90
42031;DHT22;27709;52.036;5.906;2022-12-29T18:15:31;8.50;99.90
42031;DHT22;27709;52.036;5.906;2022-12-29T18:18:16;8.40;99.90
42031;DHT22;27709;52.036;5.906;2022-12-29T18:20:45;8.40;99.90
42031;DHT22;27709;52.036;5.906;2022-12-29T18:23:30;8.30;99.90
42031;DHT22;27709;52.036;5.906;2022-12-29T18:28:40;8.30;99.90